Flight Number: AVA1824 Duration: 1:10
Departure: Paris - Charles-de-Gaulle (LFPG) at 17:40 Distance: 352.998 Nm
Arrival: Marseille-Provence (LFML) at 18:50 Equipment: A321

Weather Information
Paris-Aeroport Charles De Gaulle, France (LFPG) 49-01N 002-32E 109M Apr 14, 2024 - 10:00 PM EDT / 2024.04.15 0200 UTC
Wind: from the WNW (300 degrees) at 7 MPH (6 KT):0
Visibility: greater than 7 mile(s):0 Temperature: 50 F (10 C) Dew Point: 41 F (5 C) Relative Humidity: 71% Pressure (altimeter): 30.06 in. Hg (1018 hPa)
ob: LFPG 150200Z 30006KT CAVOK 10/05 Q1018 NOSIG cycle: 2
Sunrise: 05:00 Sunset: 18:39 (UTC)

Marseille / Marignane, France (LFML) 43-27N 005-14E 36M Apr 14, 2024 - 10:00 PM EDT / 2024.04.15 0200 UTC
Wind: from the ESE (110 degrees) at 5 MPH (4 KT) (direction variable):0
Visibility: greater than 7 mile(s):0 Temperature: 55 F (13 C) Dew Point: 42 F (6 C) Relative Humidity: 62% Pressure (altimeter): 30.09 in. Hg (1019 hPa)
ob: LFML 150200Z AUTO 11004KT 070V150 CAVOK 13/06 Q1019 TEMPO 2000 BR OVC003 cycle: 2
Sunrise: 04:58 Sunset: 18:19 (UTC)

TAF:2024/04/14 21:24 TAF TAF LFML 142000Z 1421/1603 VRB04KT CAVOK TX26/1512Z TN14/1504Z PROB40 TEMPO 1422/1509 2000 BR OVC003 BECMG 1514/1516 28012KT TEMPO 1516/1603 30018G28KT

Previous Pireps for this route
Date Flightnr Aircraft Flight time Fuel used Landing rate On time
2017-02-15AVA1824A3210.557910.80Yes
2017-03-01AVA1147A3211.0417078-1557Yes
2017-11-11AVX9321AA32101.066723-244Charter
2018-04-18AVA1824A3211.146051-575Yes
2018-10-06AVA1147A32101.086487-433Yes
2018-12-27AVA1824A32101.067096-421Yes
(pireps marked green are flown by you)

Route map